Byron Hills, Illinois
Current Conditions -  °F | °C
As of 11:09 PM on Monday 22 Dec 2014 (Local Time) from KDVN Reporting Station
Light Rain Light Rain  
Wind Chill: 35°   Ceiling: 200
Heat Index: 41°   Visibility: 2.5mi
Dew Point: 39°   Wind: 10mph
Humidity: 93%   Direction: 100°E
Pressure: 29.48"   Gusts: NA
Location:  41.595°N, 90.2974°W
Report Text: KDVN 230509Z AUTO 10009KT 2 1/2SM -RA BR OVC002 05/04 A2948 RMK AO2 P0001 T00500039
Loading
Personal Weather Stations






























Interactive Weather Map New forecast layout! Learn more

10-Day Weather Forecast

Advertisements
Track Severe Weather on mobile